SEAYX EDDM-EFET

Flight info

Callsign SEAYX
Flight time 2h 48m
Altitude 38000
Route AKINI1Q AKINI Y104 MAMOR L132 RUDNO DCT DONAD/N0511F370 DCT MAREM DCT SUBIX/N0510F390 DCT VUXDU/N0511F380 DCT OBDEJ DCT DEMUR/N0510F390 DCT LUSID DCT LATVI DCT SA551 DCT RIKPA DCT LAPIX DCT LAMOS/N0501F270 T400 ABALA/N0520F390 DCT EXUTI DCT EVOLA DCT UVMOK
Aircraft C750/M-SBDE3FGHRWXY/S

Departure

Time 2026-04-07 11:43
Airport Munich Airport (EDDM)

Arrival

Time 2026-04-07 14:32
Airport Enontekio Airport (EFET)
Time Latitude Longitude Altitude Speed Heading
2026-04-07 11:20 48.34697 11.76770 1482 ft 0 kts 83°
2026-04-07 11:38 48.34697 11.76773 1509 ft 2 kts 83°
2026-04-07 11:39 48.34701 11.76815 1482 ft 6 kts 83°
2026-04-07 11:39 48.34725 11.76857 1482 ft 3 kts 354°
2026-04-07 11:39 48.34765 11.76844 1479 ft 7 kts 332°
2026-04-07 11:39 48.34770 11.76819 1482 ft 3 kts 254°
2026-04-07 11:40 48.34755 11.76772 1480 ft 8 kts 253°
2026-04-07 11:40 48.34739 11.76671 1482 ft 10 kts 222°
2026-04-07 11:40 48.34659 11.76669 1482 ft 14 kts 173°
2026-04-07 11:40 48.34566 11.76621 1482 ft 17 kts 248°
2026-04-07 11:41 48.34550 11.76422 1477 ft 23 kts 264°
2026-04-07 11:41 48.34529 11.76154 1482 ft 29 kts 263°
2026-04-07 11:41 48.34507 11.75862 1479 ft 27 kts 264°
2026-04-07 11:41 48.34486 11.75592 1479 ft 25 kts 264°
2026-04-07 11:42 48.34468 11.75348 1482 ft 23 kts 264°
2026-04-07 11:42 48.34390 11.75220 1482 ft 17 kts 168°
2026-04-07 11:42 48.34280 11.75240 1482 ft 15 kts 173°
2026-04-07 11:42 48.34179 11.75257 1482 ft 16 kts 173°
2026-04-07 11:43 48.34087 11.75350 1482 ft 13 kts 77°
2026-04-07 11:43 48.34118 11.75756 1482 ft 88 kts 84°
2026-04-07 11:43 48.34219 11.77082 1586 ft 147 kts 83°
2026-04-07 11:43 48.34322 11.78675 2142 ft 159 kts 83°
2026-04-07 11:44 48.34462 11.80372 2830 ft 169 kts 80°
2026-04-07 11:44 48.34608 11.82242 3332 ft 192 kts 83°
2026-04-07 11:44 48.34767 11.84350 3815 ft 212 kts 82°
2026-04-07 11:44 48.34962 11.86672 4370 ft 238 kts 82°
2026-04-07 11:45 48.35157 11.89281 5030 ft 264 kts 82°
2026-04-07 11:45 48.35364 11.92092 5824 ft 276 kts 83°
2026-04-07 11:45 48.35557 11.94896 6807 ft 265 kts 83°
2026-04-07 11:45 48.35838 11.97694 7091 ft 279 kts 69°
2026-04-07 11:46 48.36820 12.00147 6966 ft 269 kts 49°
2026-04-07 11:46 48.38175 12.02067 6978 ft 268 kts 32°
2026-04-07 11:46 48.39816 12.03293 6983 ft 265 kts 14°
2026-04-07 11:46 48.41603 12.03720 7928 ft 256 kts 358°
2026-04-07 11:47 48.43413 12.03739 9002 ft 264 kts 357°
2026-04-07 11:47 48.45293 12.03758 9828 ft 272 kts 358°
2026-04-07 11:47 48.47205 12.03772 10561 ft 283 kts 357°
2026-04-07 11:47 48.49262 12.03766 10771 ft 309 kts 357°
2026-04-07 11:48 48.51507 12.03763 10902 ft 334 kts 358°
2026-04-07 11:48 48.53841 12.03778 11669 ft 335 kts 358°
2026-04-07 11:48 48.56148 12.03789 12409 ft 338 kts 358°
2026-04-07 11:48 48.58515 12.03789 13112 ft 342 kts 358°
2026-04-07 11:49 48.60905 12.03798 13826 ft 345 kts 359°
2026-04-07 11:49 48.63292 12.04466 14367 ft 355 kts 16°
2026-04-07 11:49 48.65562 12.05953 15068 ft 356 kts 21°
2026-04-07 11:49 48.67825 12.07526 15691 ft 359 kts 21°
2026-04-07 11:50 48.70112 12.09094 16327 ft 362 kts 21°
2026-04-07 11:50 48.72413 12.10658 16979 ft 365 kts 21°
2026-04-07 11:50 48.74744 12.12252 17655 ft 368 kts 21°
2026-04-07 11:50 48.77061 12.13951 18294 ft 372 kts 23°
2026-04-07 11:51 48.79410 12.15630 18947 ft 374 kts 22°
2026-04-07 11:51 48.81785 12.17301 19553 ft 378 kts 22°
2026-04-07 11:51 48.84167 12.19017 20169 ft 381 kts 22°
2026-04-07 11:51 48.86573 12.20773 20795 ft 385 kts 22°
2026-04-07 11:52 48.88999 12.22529 21414 ft 388 kts 22°
2026-04-07 11:52 48.91460 12.24265 22018 ft 392 kts 21°
2026-04-07 11:52 48.93952 12.25988 22633 ft 395 kts 21°
2026-04-07 11:52 48.96463 12.27749 23227 ft 399 kts 22°
2026-04-07 11:53 48.98995 12.29550 23816 ft 403 kts 22°
2026-04-07 11:53 49.01543 12.31354 24322 ft 406 kts 22°
2026-04-07 11:53 49.04084 12.33142 24826 ft 409 kts 21°
2026-04-07 11:53 49.06676 12.34971 25334 ft 412 kts 22°
2026-04-07 11:54 49.09286 12.36823 25835 ft 415 kts 22°
2026-04-07 11:54 49.11908 12.38685 26332 ft 417 kts 21°
2026-04-07 11:54 49.14553 12.40562 26832 ft 420 kts 21°
2026-04-07 11:54 49.17210 12.42448 27337 ft 423 kts 21°
2026-04-07 11:55 49.19890 12.44356 27837 ft 426 kts 21°
2026-04-07 11:55 49.22592 12.46282 28346 ft 429 kts 21°
2026-04-07 11:55 49.25309 12.48221 28841 ft 432 kts 21°
2026-04-07 11:55 49.28051 12.50178 29332 ft 436 kts 21°
2026-04-07 11:56 49.30806 12.52148 29837 ft 438 kts 21°
2026-04-07 11:56 49.33585 12.54125 30307 ft 441 kts 20°
2026-04-07 11:56 49.36439 12.55876 30692 ft 443 kts 18°
2026-04-07 11:56 49.39283 12.57578 31128 ft 445 kts 18°
2026-04-07 11:57 49.42162 12.59334 31675 ft 444 kts 18°
2026-04-07 11:57 49.45026 12.61093 32335 ft 441 kts 18°
2026-04-07 11:57 49.47871 12.62825 32949 ft 439 kts 18°
2026-04-07 11:57 49.50715 12.64547 33565 ft 438 kts 18°
2026-04-07 11:58 49.53541 12.66272 34184 ft 436 kts 18°
2026-04-07 11:58 49.56352 12.67996 34752 ft 434 kts 18°
2026-04-07 11:58 49.59160 12.69716 35298 ft 432 kts 18°
2026-04-07 11:58 49.61953 12.71424 35841 ft 431 kts 18°
2026-04-07 11:59 49.64739 12.73132 36369 ft 430 kts 18°
2026-04-07 11:59 49.67520 12.74841 36899 ft 429 kts 18°
2026-04-07 11:59 49.70282 12.76541 37438 ft 427 kts 18°
2026-04-07 11:59 49.73041 12.78240 37957 ft 426 kts 18°
2026-04-07 12:00 49.75790 12.79934 38486 ft 425 kts 18°
2026-04-07 12:00 49.78530 12.81625 38993 ft 424 kts 18°
2026-04-07 12:00 49.81268 12.83317 39365 ft 424 kts 18°
2026-04-07 12:00 49.84006 12.85011 39723 ft 424 kts 18°
2026-04-07 12:01 49.86749 12.86710 40063 ft 425 kts 18°
2026-04-07 12:01 49.89499 12.88416 40409 ft 426 kts 18°
2026-04-07 12:01 49.92258 12.90130 40768 ft 427 kts 18°
2026-04-07 12:01 49.94979 12.91821 41101 ft 428 kts 18°
2026-04-07 12:02 49.97746 12.93544 41445 ft 429 kts 18°
2026-04-07 12:02 50.00521 12.95274 41794 ft 429 kts 18°
2026-04-07 12:02 50.03294 12.97005 42140 ft 430 kts 18°
2026-04-07 12:02 50.06077 12.98744 42489 ft 431 kts 18°
2026-04-07 12:03 50.08810 13.00709 42778 ft 436 kts 26°
2026-04-07 12:03 50.11389 13.03215 43115 ft 438 kts 29°
2026-04-07 12:03 50.13965 13.05769 43312 ft 442 kts 28°
2026-04-07 12:03 50.16596 13.08326 43295 ft 449 kts 28°
2026-04-07 12:04 50.21986 13.13590 43308 ft 465 kts 29°
2026-04-07 12:04 50.27529 13.19058 43394 ft 476 kts 28°
2026-04-07 12:05 50.30268 13.21754 44632 ft 452 kts 29°
2026-04-07 12:05 50.32892 13.24348 45308 ft 443 kts 29°
2026-04-07 12:05 50.38197 13.29577 45303 ft 457 kts 29°
2026-04-07 12:06 50.43649 13.34990 45322 ft 470 kts 29°
2026-04-07 12:06 50.49235 13.40539 45334 ft 480 kts 29°
2026-04-07 12:07 50.54935 13.46224 45342 ft 489 kts 29°
2026-04-07 12:07 50.60724 13.52012 45337 ft 496 kts 29°
2026-04-07 12:08 50.66566 13.57872 45321 ft 498 kts 30°
2026-04-07 12:08 50.72538 13.63372 45310 ft 494 kts 20°
2026-04-07 12:09 50.78993 13.66982 45324 ft 492 kts 16°
2026-04-07 12:09 50.85413 13.70585 45338 ft 492 kts 17°
2026-04-07 12:10 50.91873 13.74172 45331 ft 491 kts 17°
2026-04-07 12:10 50.98338 13.77789 45319 ft 491 kts 17°
2026-04-07 12:11 51.04776 13.81400 45333 ft 490 kts 17°
2026-04-07 12:11 51.11217 13.85017 45311 ft 490 kts 17°
2026-04-07 12:12 51.17641 13.88645 45322 ft 490 kts 17°
2026-04-07 12:12 51.24075 13.92280 45330 ft 490 kts 17°
2026-04-07 12:13 51.30496 13.95926 45330 ft 489 kts 17°
2026-04-07 12:13 51.36915 13.99576 45325 ft 489 kts 17°
2026-04-07 12:14 51.43325 14.03235 45321 ft 489 kts 17°
2026-04-07 12:14 51.49737 14.06905 45324 ft 489 kts 17°
2026-04-07 12:15 51.56103 14.10560 45323 ft 489 kts 17°
2026-04-07 12:15 51.62515 14.14252 45321 ft 489 kts 17°
2026-04-07 12:16 51.68925 14.17954 45323 ft 490 kts 17°
2026-04-07 12:16 51.75336 14.21667 45324 ft 490 kts 17°
2026-04-07 12:17 51.81751 14.25395 45323 ft 490 kts 17°
2026-04-07 12:17 51.88171 14.29137 45320 ft 490 kts 17°
2026-04-07 12:18 51.94590 14.32890 45324 ft 490 kts 17°
2026-04-07 12:18 51.99926 14.36018 45321 ft 491 kts 17°
2026-04-07 12:19 52.06353 14.39796 45306 ft 491 kts 17°
2026-04-07 12:19 52.12779 14.43585 45314 ft 491 kts 17°
2026-04-07 12:20 52.19206 14.47387 45310 ft 491 kts 17°
2026-04-07 12:20 52.25601 14.51181 45316 ft 492 kts 17°
2026-04-07 12:21 52.32034 14.55009 45318 ft 492 kts 17°
2026-04-07 12:21 52.38473 14.58817 45311 ft 491 kts 15°
2026-04-07 12:22 52.45006 14.62106 45310 ft 491 kts 14°
2026-04-07 12:22 52.51534 14.65429 45311 ft 491 kts 14°
2026-04-07 12:23 52.58064 14.68752 45308 ft 491 kts 14°
2026-04-07 12:23 52.64551 14.72063 45312 ft 491 kts 14°
2026-04-07 12:24 52.71077 14.75409 45305 ft 491 kts 14°
2026-04-07 12:24 52.77603 14.78761 45309 ft 491 kts 14°
2026-04-07 12:25 52.84127 14.82127 45301 ft 491 kts 14°
2026-04-07 12:25 52.90654 14.85501 45292 ft 491 kts 14°
2026-04-07 12:26 52.97189 14.88893 45292 ft 491 kts 14°
2026-04-07 12:26 53.03716 14.92289 45306 ft 492 kts 14°
2026-04-07 12:27 53.10244 14.95698 45308 ft 491 kts 14°
2026-04-07 12:27 53.16733 14.99098 45311 ft 491 kts 14°
2026-04-07 12:28 53.23286 15.02193 45280 ft 487 kts
2026-04-07 12:29 53.33370 15.02513 45312 ft 483 kts 356°
2026-04-07 12:29 53.40088 15.02264 45304 ft 482 kts 356°
2026-04-07 12:30 53.46790 15.01968 45302 ft 482 kts 356°
2026-04-07 12:30 53.53502 15.01698 45302 ft 482 kts 356°
2026-04-07 12:31 53.60200 15.01413 45297 ft 481 kts 356°
2026-04-07 12:31 53.66895 15.01134 45299 ft 481 kts 356°
2026-04-07 12:32 53.73558 15.00853 45307 ft 481 kts 356°
2026-04-07 12:32 53.80254 15.00569 45317 ft 481 kts 356°
2026-04-07 12:33 53.86953 15.00286 45315 ft 481 kts 356°
2026-04-07 12:33 53.93646 15.00016 45324 ft 481 kts 357°
2026-04-07 12:34 54.00357 15.00371 45321 ft 482 kts 360°
2026-04-07 12:34 54.07063 15.00761 45317 ft 483 kts
2026-04-07 12:35 54.13719 15.02728 45319 ft 487 kts
2026-04-07 12:35 54.20362 15.04953 45321 ft 486 kts
2026-04-07 12:36 54.27003 15.07226 45323 ft 487 kts
2026-04-07 12:36 54.33608 15.09474 45316 ft 486 kts
2026-04-07 12:37 54.40253 15.11751 45317 ft 487 kts
2026-04-07 12:37 54.46898 15.14034 45304 ft 487 kts
2026-04-07 12:38 54.53544 15.16323 45305 ft 487 kts
2026-04-07 12:38 54.60191 15.18623 45310 ft 487 kts
2026-04-07 12:39 54.66828 15.20925 45311 ft 486 kts
2026-04-07 12:39 54.73462 15.23235 45306 ft 486 kts
2026-04-07 12:40 54.80050 15.25535 45307 ft 485 kts
2026-04-07 12:40 54.86670 15.27856 45303 ft 485 kts
2026-04-07 12:41 54.93238 15.30582 45273 ft 488 kts 16°
2026-04-07 12:41 54.99619 15.34645 45301 ft 487 kts 16°
2026-04-07 12:42 55.06003 15.38650 45294 ft 487 kts 17°
2026-04-07 12:42 55.12380 15.42723 45294 ft 488 kts 17°
2026-04-07 12:43 55.18762 15.46774 45292 ft 488 kts 17°
2026-04-07 12:43 55.25147 15.50866 45287 ft 489 kts 17°
2026-04-07 12:44 55.31542 15.54964 45283 ft 489 kts 17°
2026-04-07 12:44 55.37929 15.59077 45287 ft 489 kts 17°
2026-04-07 12:45 55.44318 15.63204 45281 ft 489 kts 17°
2026-04-07 12:45 55.50664 15.67319 45280 ft 489 kts 18°
2026-04-07 12:46 55.57058 15.71477 45280 ft 489 kts 18°
2026-04-07 12:46 55.63445 15.75647 45273 ft 489 kts 18°
2026-04-07 12:47 55.69825 15.79826 45278 ft 488 kts 18°
2026-04-07 12:47 55.76205 15.84019 45264 ft 488 kts 18°
2026-04-07 12:48 55.82572 15.88219 45271 ft 488 kts 18°
2026-04-07 12:48 55.88930 15.92428 45268 ft 487 kts 18°
2026-04-07 12:49 55.95282 15.96646 45264 ft 486 kts 18°
2026-04-07 12:49 56.01625 16.00875 45270 ft 486 kts 18°
2026-04-07 12:50 56.07951 16.05106 45259 ft 486 kts 18°
2026-04-07 12:50 56.14275 16.09351 45272 ft 485 kts 18°
2026-04-07 12:51 56.20585 16.13602 45275 ft 484 kts 19°
2026-04-07 12:51 56.26893 16.17866 45250 ft 484 kts 19°
2026-04-07 12:52 56.33194 16.22141 45269 ft 483 kts 19°
2026-04-07 12:52 56.39487 16.26425 45268 ft 483 kts 19°
2026-04-07 12:53 56.45773 16.30719 45253 ft 483 kts 19°
2026-04-07 12:53 56.52020 16.35001 45252 ft 483 kts 19°
2026-04-07 12:54 56.58347 16.39355 45247 ft 483 kts 19°
2026-04-07 12:54 56.64590 16.43667 45246 ft 483 kts 19°
2026-04-07 12:55 56.70868 16.48017 45244 ft 483 kts 19°
2026-04-07 12:55 56.77146 16.52383 45253 ft 483 kts 19°
2026-04-07 12:56 56.83421 16.56762 45252 ft 482 kts 19°
2026-04-07 12:56 56.89736 16.60866 45232 ft 480 kts 12°
2026-04-07 12:57 56.96224 16.63784 45276 ft 480 kts 12°
2026-04-07 12:57 57.02698 16.66785 45281 ft 480 kts 12°
2026-04-07 12:58 57.09178 16.69733 45277 ft 480 kts 12°
2026-04-07 12:58 57.15651 16.72735 45273 ft 479 kts 12°
2026-04-07 12:59 57.22072 16.75694 45274 ft 479 kts 12°
2026-04-07 12:59 57.28537 16.78702 45264 ft 478 kts 12°
2026-04-07 13:00 57.35000 16.81708 45271 ft 479 kts 12°
2026-04-07 13:00 57.41468 16.84736 45269 ft 479 kts 12°
2026-04-07 13:01 57.47948 16.87776 45251 ft 480 kts 12°
2026-04-07 13:01 57.54433 16.90831 45266 ft 481 kts 12°
2026-04-07 13:02 57.60924 16.93899 45263 ft 481 kts 12°
2026-04-07 13:02 57.67430 16.96987 45275 ft 482 kts 12°
2026-04-07 13:03 57.73939 17.00087 45272 ft 483 kts 12°
2026-04-07 13:03 57.79393 17.02693 45260 ft 483 kts 12°
2026-04-07 13:04 57.85865 17.05797 45269 ft 483 kts 12°
2026-04-07 13:04 57.92384 17.08935 45270 ft 484 kts 12°
2026-04-07 13:05 57.98902 17.12085 45268 ft 484 kts 12°
2026-04-07 13:05 58.05426 17.15248 45264 ft 484 kts 12°
2026-04-07 13:06 58.11955 17.18427 45256 ft 484 kts 12°
2026-04-07 13:06 58.18485 17.21618 45260 ft 484 kts 12°
2026-04-07 13:07 58.25013 17.24819 45256 ft 485 kts 12°
2026-04-07 13:07 58.31546 17.28037 45267 ft 485 kts 13°
2026-04-07 13:08 58.38075 17.31264 45260 ft 485 kts 13°
2026-04-07 13:08 58.44604 17.34502 45250 ft 485 kts 13°
2026-04-07 13:09 58.51141 17.37759 45253 ft 485 kts 13°
2026-04-07 13:09 58.57675 17.41025 45249 ft 485 kts 13°
2026-04-07 13:10 58.64204 17.44303 45255 ft 485 kts 13°
2026-04-07 13:10 58.70697 17.47574 45259 ft 485 kts 13°
2026-04-07 13:11 58.77225 17.50877 45249 ft 485 kts 13°
2026-04-07 13:11 58.83757 17.54193 45253 ft 485 kts 13°
2026-04-07 13:12 58.90292 17.57525 45260 ft 486 kts 13°
2026-04-07 13:12 58.96826 17.60868 45249 ft 486 kts 13°
2026-04-07 13:13 59.03362 17.64226 45255 ft 486 kts 13°
2026-04-07 13:13 59.09903 17.67600 45248 ft 486 kts 13°
2026-04-07 13:14 59.16443 17.70987 45263 ft 487 kts 13°
2026-04-07 13:14 59.22998 17.74395 45267 ft 487 kts 13°
2026-04-07 13:15 59.29557 17.77819 45270 ft 487 kts 13°
2026-04-07 13:15 59.36109 17.81253 45273 ft 488 kts 13°
2026-04-07 13:16 59.42674 17.84707 45269 ft 488 kts 13°
2026-04-07 13:16 59.49186 17.88147 45274 ft 488 kts 13°
2026-04-07 13:17 59.55761 17.91634 45275 ft 488 kts 13°
2026-04-07 13:17 59.62330 17.95077 45262 ft 488 kts 11°
2026-04-07 13:18 59.68973 17.97908 45274 ft 488 kts 10°
2026-04-07 13:18 59.75611 18.00790 45267 ft 489 kts 11°
2026-04-07 13:19 59.82270 18.03673 45273 ft 489 kts 10°
2026-04-07 13:19 59.88877 18.06550 45273 ft 490 kts 11°
2026-04-07 13:20 59.95532 18.09462 45280 ft 490 kts 11°
2026-04-07 13:20 60.02221 18.12396 45281 ft 491 kts 11°
2026-04-07 13:21 60.08902 18.15344 45289 ft 491 kts 11°
2026-04-07 13:21 60.15576 18.18296 45291 ft 491 kts 11°
2026-04-07 13:22 60.22256 18.21267 45296 ft 491 kts 11°
2026-04-07 13:22 60.28934 18.24247 45300 ft 492 kts 11°
2026-04-07 13:23 60.35616 18.27243 45302 ft 492 kts 11°
2026-04-07 13:23 60.42299 18.30251 45306 ft 492 kts 11°
2026-04-07 13:24 60.48983 18.33272 45302 ft 492 kts 11°
2026-04-07 13:24 60.55634 18.36292 45305 ft 493 kts 11°
2026-04-07 13:25 60.62325 18.39342 45312 ft 493 kts 11°
2026-04-07 13:25 60.69012 18.42403 45309 ft 493 kts 11°
2026-04-07 13:26 60.75710 18.45483 45303 ft 493 kts 11°
2026-04-07 13:26 60.80831 18.47847 45307 ft 493 kts 11°
2026-04-07 13:27 60.85521 18.50019 45304 ft 492 kts 11°
2026-04-07 13:27 60.92205 18.53124 45309 ft 492 kts 11°
2026-04-07 13:28 60.98886 18.56242 45308 ft 492 kts 11°
2026-04-07 13:28 61.05567 18.59373 45310 ft 492 kts 11°
2026-04-07 13:29 61.12245 18.62517 45310 ft 492 kts 11°
2026-04-07 13:29 61.18929 18.65677 45316 ft 493 kts 11°
2026-04-07 13:30 61.25606 18.68847 45315 ft 493 kts 11°
2026-04-07 13:30 61.32297 18.72038 45315 ft 493 kts 11°
2026-04-07 13:31 61.38934 18.75217 45313 ft 493 kts 11°
2026-04-07 13:31 61.45619 18.78433 45313 ft 493 kts 11°
2026-04-07 13:32 61.52357 18.81688 45310 ft 493 kts 11°
2026-04-07 13:32 61.59005 18.84916 45317 ft 494 kts 11°
2026-04-07 13:33 61.65706 18.88182 45320 ft 494 kts 11°
2026-04-07 13:33 61.75744 18.93103 45323 ft 494 kts 11°
2026-04-07 13:34 61.82435 18.96411 45319 ft 494 kts 12°
2026-04-07 13:34 61.89010 19.00762 45326 ft 495 kts 16°
2026-04-07 13:35 61.95573 19.05225 45320 ft 495 kts 15°
2026-04-07 13:35 62.02130 19.09703 45321 ft 495 kts 16°
2026-04-07 13:36 62.08687 19.14213 45324 ft 495 kts 16°
2026-04-07 13:36 62.15250 19.18733 45324 ft 495 kts 16°
2026-04-07 13:37 62.21807 19.23284 45323 ft 495 kts 16°
2026-04-07 13:37 62.28321 19.27813 45328 ft 496 kts 16°
2026-04-07 13:38 62.34881 19.32405 45329 ft 496 kts 16°
2026-04-07 13:38 62.41437 19.37008 45330 ft 496 kts 16°
2026-04-07 13:39 62.47994 19.41638 45327 ft 496 kts 16°
2026-04-07 13:39 62.54552 19.46288 45323 ft 496 kts 16°
2026-04-07 13:40 62.61107 19.50958 45332 ft 496 kts 16°
2026-04-07 13:40 62.67666 19.55653 45333 ft 496 kts 16°
2026-04-07 13:41 62.74217 19.60363 45336 ft 496 kts 16°
2026-04-07 13:41 62.80767 19.65095 45339 ft 496 kts 16°
2026-04-07 13:42 62.87311 19.69845 45343 ft 495 kts 16°
2026-04-07 13:42 62.93854 19.74617 45340 ft 495 kts 16°
2026-04-07 13:43 63.00395 19.79409 45344 ft 495 kts 16°
2026-04-07 13:43 63.06894 19.84194 45333 ft 495 kts 16°
2026-04-07 13:44 63.13431 19.89028 45346 ft 495 kts 16°
2026-04-07 13:44 63.19967 19.93887 45347 ft 496 kts 16°
2026-04-07 13:45 63.26499 19.98764 45346 ft 496 kts 16°
2026-04-07 13:45 63.33036 20.03668 45348 ft 496 kts 17°
2026-04-07 13:46 63.39573 20.08597 45348 ft 496 kts 17°
2026-04-07 13:46 63.46119 20.13556 45356 ft 496 kts 17°
2026-04-07 13:47 63.52663 20.18538 45356 ft 497 kts 17°
2026-04-07 13:47 63.59209 20.23545 45357 ft 497 kts 17°
2026-04-07 13:48 63.65756 20.28577 45353 ft 497 kts 17°
2026-04-07 13:48 63.72305 20.33637 45354 ft 498 kts 17°
2026-04-07 13:49 63.78856 20.38721 45351 ft 498 kts 17°
2026-04-07 13:49 63.85365 20.43800 45355 ft 498 kts 17°
2026-04-07 13:50 63.91931 20.48859 45352 ft 498 kts 15°
2026-04-07 13:50 63.97466 20.52830 45365 ft 498 kts 15°
2026-04-07 13:51 64.04060 20.57630 45370 ft 497 kts 15°
2026-04-07 13:51 64.10656 20.62409 45371 ft 497 kts 15°
2026-04-07 13:52 64.17243 20.67239 45373 ft 497 kts 15°
2026-04-07 13:52 64.23826 20.72066 45386 ft 496 kts 15°
2026-04-07 13:53 64.30409 20.76933 45373 ft 497 kts 15°
2026-04-07 13:53 64.36993 20.81817 45374 ft 497 kts 15°
2026-04-07 13:54 64.43573 20.86724 45388 ft 497 kts 15°
2026-04-07 13:54 64.50153 20.91658 45383 ft 497 kts 15°
2026-04-07 13:55 64.56730 20.96614 45379 ft 497 kts 15°
2026-04-07 13:55 64.63315 21.01601 45381 ft 497 kts 15°
2026-04-07 13:56 64.69895 21.06610 45384 ft 498 kts 15°
2026-04-07 13:56 64.76474 21.11644 45387 ft 498 kts 15°
2026-04-07 13:57 64.83058 21.16707 45390 ft 498 kts 15°
2026-04-07 13:57 64.89638 21.21794 45400 ft 498 kts 15°
2026-04-07 13:58 64.96217 21.26905 45401 ft 497 kts 15°
2026-04-07 13:58 65.02792 21.32041 45410 ft 498 kts 16°
2026-04-07 13:59 65.09364 21.37202 45408 ft 498 kts 16°
2026-04-07 13:59 65.15938 21.42390 45408 ft 497 kts 16°
2026-04-07 14:00 65.22460 21.47564 45416 ft 497 kts 16°
2026-04-07 14:00 65.29026 21.52801 45413 ft 497 kts 16°
2026-04-07 14:01 65.35634 21.58098 45416 ft 497 kts 16°
2026-04-07 14:01 65.42154 21.63353 45409 ft 498 kts 16°
2026-04-07 14:02 65.48713 21.68668 45408 ft 498 kts 16°
2026-04-07 14:02 65.55277 21.74015 45408 ft 498 kts 16°
2026-04-07 14:03 65.61834 21.79382 45407 ft 498 kts 16°
2026-04-07 14:03 65.68396 21.84787 45411 ft 498 kts 16°
2026-04-07 14:04 65.74959 21.90218 45416 ft 498 kts 16°
2026-04-07 14:04 65.81480 21.95967 45398 ft 501 kts 21°
2026-04-07 14:05 65.87744 22.03491 45426 ft 501 kts 23°
2026-04-07 14:05 65.94021 22.10955 45428 ft 502 kts 23°
2026-04-07 14:06 66.00287 22.18526 45432 ft 502 kts 23°
2026-04-07 14:06 66.06560 22.26106 45438 ft 502 kts 23°
2026-04-07 14:07 66.12823 22.33735 45439 ft 502 kts 23°
2026-04-07 14:07 66.19087 22.41402 45449 ft 502 kts 23°
2026-04-07 14:08 66.25351 22.49110 45440 ft 502 kts 23°
2026-04-07 14:08 66.31610 22.56860 45448 ft 503 kts 23°
2026-04-07 14:09 66.37872 22.64652 45450 ft 503 kts 23°
2026-04-07 14:09 66.44126 22.72482 45446 ft 503 kts 23°
2026-04-07 14:10 66.50379 22.80351 45448 ft 503 kts 23°
2026-04-07 14:10 66.56635 22.88271 45448 ft 503 kts 23°
2026-04-07 14:11 66.62885 22.96227 45434 ft 504 kts 24°
2026-04-07 14:11 66.69304 23.03068 45462 ft 500 kts 15°
2026-04-07 14:12 66.75891 23.08768 45462 ft 500 kts 16°
2026-04-07 14:12 66.82465 23.14616 45460 ft 500 kts 16°
2026-04-07 14:13 66.89045 23.20410 45461 ft 501 kts 16°
2026-04-07 14:13 66.95623 23.26301 45457 ft 501 kts 16°
2026-04-07 14:14 67.02205 23.32185 45456 ft 501 kts 16°
2026-04-07 14:14 67.08669 23.38033 45415 ft 472 kts 16°
2026-04-07 14:15 67.11694 23.40777 45357 ft 452 kts 15°
2026-04-07 14:15 67.14619 23.43420 44802 ft 442 kts 15°
2026-04-07 14:15 67.17523 23.46047 43813 ft 442 kts 15°
2026-04-07 14:15 67.20387 23.48661 42890 ft 441 kts 16°
2026-04-07 14:16 67.23278 23.51316 41993 ft 440 kts 16°
2026-04-07 14:16 67.26157 23.53958 41087 ft 438 kts 16°
2026-04-07 14:16 67.29028 23.56591 40177 ft 437 kts 16°
2026-04-07 14:16 67.31893 23.59231 39276 ft 436 kts 17°
2026-04-07 14:17 67.34764 23.61885 37399 ft 444 kts 17°
2026-04-07 14:17 67.37743 23.64635 34929 ft 467 kts 17°
2026-04-07 14:17 67.40839 23.67513 33303 ft 469 kts 17°
2026-04-07 14:17 67.43834 23.70331 32326 ft 450 kts 17°
2026-04-07 14:18 67.46753 23.73057 31044 ft 442 kts 17°
2026-04-07 14:18 67.49622 23.75723 29727 ft 432 kts 17°
2026-04-07 14:18 67.52424 23.78352 28254 ft 425 kts 17°
2026-04-07 14:18 67.55189 23.80964 26827 ft 420 kts 17°
2026-04-07 14:19 67.57915 23.83539 25482 ft 414 kts 17°
2026-04-07 14:19 67.60677 23.85316 23999 ft 407 kts
2026-04-07 14:19 67.63429 23.84360 22628 ft 395 kts 342°
2026-04-07 14:19 67.65962 23.81920 21481 ft 381 kts 336°
2026-04-07 14:20 67.68360 23.79085 20260 ft 374 kts 334°
2026-04-07 14:20 67.70680 23.76130 19120 ft 367 kts 333°
2026-04-07 14:20 67.72940 23.73140 17871 ft 360 kts 333°
2026-04-07 14:20 67.75152 23.70142 16627 ft 354 kts 333°
2026-04-07 14:21 67.77320 23.67163 15434 ft 349 kts 333°
2026-04-07 14:21 67.79450 23.64206 14289 ft 343 kts 333°
2026-04-07 14:21 67.81546 23.61270 13069 ft 338 kts 333°
2026-04-07 14:21 67.83568 23.58421 12300 ft 325 kts 333°
2026-04-07 14:22 67.85480 23.55718 12059 ft 298 kts 333°
2026-04-07 14:22 67.87229 23.53235 11886 ft 275 kts 333°
2026-04-07 14:22 67.88905 23.50847 11144 ft 274 kts 333°
2026-04-07 14:22 67.90582 23.48449 10477 ft 272 kts 333°
2026-04-07 14:23 67.92237 23.46064 9791 ft 269 kts 333°
2026-04-07 14:23 67.93877 23.43684 9099 ft 267 kts 333°
2026-04-07 14:23 67.95500 23.41305 8421 ft 265 kts 333°
2026-04-07 14:23 67.97109 23.38924 7755 ft 264 kts 333°
2026-04-07 14:24 67.98704 23.36539 7110 ft 262 kts 333°
2026-04-07 14:24 68.00291 23.34164 6427 ft 259 kts 333°
2026-04-07 14:24 68.02021 23.33119 5568 ft 257 kts
2026-04-07 14:24 68.03772 23.33415 4887 ft 252 kts 358°
2026-04-07 14:25 68.05469 23.32075 4185 ft 252 kts 342°
2026-04-07 14:25 68.07208 23.31461 3527 ft 254 kts
2026-04-07 14:25 68.08932 23.31648 3519 ft 248 kts
2026-04-07 14:25 68.10654 23.31819 3497 ft 248 kts
2026-04-07 14:26 68.12377 23.31688 3491 ft 246 kts 360°
2026-04-07 14:26 68.14000 23.31473 3475 ft 222 kts
2026-04-07 14:26 68.15546 23.31345 3471 ft 222 kts
2026-04-07 14:26 68.17078 23.31239 3471 ft 219 kts
2026-04-07 14:27 68.18597 23.31120 3470 ft 219 kts
2026-04-07 14:27 68.20114 23.30995 3471 ft 217 kts
2026-04-07 14:27 68.21632 23.30874 3463 ft 219 kts
2026-04-07 14:27 68.23122 23.30751 3466 ft 202 kts
2026-04-07 14:28 68.24451 23.30637 3224 ft 188 kts
2026-04-07 14:28 68.25733 23.30565 2894 ft 181 kts
2026-04-07 14:28 68.26927 23.30575 2581 ft 154 kts
2026-04-07 14:28 68.27898 23.30596 2428 ft 125 kts
2026-04-07 14:29 68.28716 23.30498 2459 ft 114 kts 359°
2026-04-07 14:29 68.29515 23.30394 2156 ft 122 kts 17°
2026-04-07 14:29 68.30265 23.31355 1949 ft 116 kts 30°
2026-04-07 14:29 68.30929 23.32430 1928 ft 110 kts 36°
2026-04-07 14:30 68.31611 23.33699 1556 ft 127 kts 37°
2026-04-07 14:30 68.32287 23.35049 1617 ft 119 kts 38°
2026-04-07 14:30 68.32967 23.36285 1605 ft 119 kts 34°
2026-04-07 14:30 68.33657 23.37580 1489 ft 123 kts 36°
2026-04-07 14:31 68.34372 23.38892 1353 ft 123 kts 36°
2026-04-07 14:31 68.35059 23.40182 1179 ft 119 kts 38°
2026-04-07 14:31 68.35731 23.41449 1014 ft 114 kts 38°
2026-04-07 14:31 68.36313 23.42541 1010 ft 83 kts 33°
2026-04-07 14:32 68.36639 23.43153 1011 ft 23 kts 28°
2026-04-07 14:32 68.36677 23.43179 1012 ft 1 kts 102°
2026-04-07 14:32 68.36655 23.43162 1011 ft 11 kts 198°
2026-04-07 14:32 68.36586 23.43046 1010 ft 12 kts 215°
2026-04-07 14:33 68.36513 23.42910 1009 ft 13 kts 215°
2026-04-07 14:33 68.36441 23.42776 1010 ft 16 kts 213°
2026-04-07 14:33 68.36290 23.42493 1010 ft 37 kts 214°
2026-04-07 14:33 68.36061 23.42068 1007 ft 25 kts 205°
2026-04-07 14:34 68.36039 23.42083 1007 ft 3 kts 106°
2026-04-07 14:34 68.36027 23.42165 1007 ft 5 kts 120°
2026-04-07 14:34 68.36000 23.42263 1008 ft 9 kts 127°
2026-04-07 14:34 68.35975 23.42363 1008 ft 9 kts 106°
2026-04-07 14:35 68.36008 23.42489 1008 ft 6 kts 59°
2026-04-07 14:35 68.35993 23.42532 1008 ft 4 kts 159°
2026-04-07 14:35 68.35960 23.42538 1008 ft 4 kts 187°
2026-04-07 14:35 68.35951 23.42536 1008 ft 0 kts 183°